sensor_id;sensor_type;location;lat;lon;timestamp;P1;durP1;ratioP1;P2;durP2;ratioP2
37383;SDS011;23258;49.718;11.082;2024-02-15T00:00:19;4.38;;;4.07;;
37383;SDS011;23258;49.718;11.082;2024-02-15T00:02:49;5.78;;;4.45;;
37383;SDS011;23258;49.718;11.082;2024-02-15T00:05:21;4.90;;;4.57;;
37383;SDS011;23258;49.718;11.082;2024-02-15T00:07:51;4.40;;;4.00;;
37383;SDS011;23258;49.718;11.082;2024-02-15T00:10:21;5.05;;;4.57;;
37383;SDS011;23258;49.718;11.082;2024-02-15T00:12:51;4.40;;;4.00;;
37383;SDS011;23258;49.718;11.082;2024-02-15T00:15:21;5.60;;;4.90;;
37383;SDS011;23258;49.718;11.082;2024-02-15T00:17:51;4.97;;;4.57;;
37383;SDS011;23258;49.718;11.082;2024-02-15T00:20:24;5.28;;;4.78;;
37383;SDS011;23258;49.718;11.082;2024-02-15T00:22:53;4.78;;;4.38;;
37383;SDS011;23258;49.718;11.082;2024-02-15T00:25:23;4.65;;;4.32;;
37383;SDS011;23258;49.718;11.082;2024-02-15T00:27:53;5.38;;;4.97;;
37383;SDS011;23258;49.718;11.082;2024-02-15T00:30:23;5.13;;;4.05;;
37383;SDS011;23258;49.718;11.082;2024-02-15T00:32:54;4.93;;;4.50;;
37383;SDS011;23258;49.718;11.082;2024-02-15T00:35:29;4.93;;;4.53;;
37383;SDS011;23258;49.718;11.082;2024-02-15T00:38:00;5.13;;;4.07;;
37383;SDS011;23258;49.718;11.082;2024-02-15T00:40:30;5.18;;;4.15;;
37383;SDS011;23258;49.718;11.082;2024-02-15T00:43:00;4.38;;;3.95;;
37383;SDS011;23258;49.718;11.082;2024-02-15T00:45:30;4.70;;;4.30;;
37383;SDS011;23258;49.718;11.082;2024-02-15T00:47:59;5.45;;;4.95;;
37383;SDS011;23258;49.718;11.082;2024-02-15T00:50:32;4.53;;;4.20;;
37383;SDS011;23258;49.718;11.082;2024-02-15T00:53:02;5.03;;;4.55;;
37383;SDS011;23258;49.718;11.082;2024-02-15T00:55:32;6.65;;;4.15;;
37383;SDS011;23258;49.718;11.082;2024-02-15T00:58:02;4.25;;;3.90;;
37383;SDS011;23258;49.718;11.082;2024-02-15T01:00:31;4.43;;;4.03;;
37383;SDS011;23258;49.718;11.082;2024-02-15T01:03:02;5.28;;;4.82;;
37383;SDS011;23258;49.718;11.082;2024-02-15T01:05:34;4.45;;;4.13;;
37383;SDS011;23258;49.718;11.082;2024-02-15T01:08:04;4.20;;;3.85;;
37383;SDS011;23258;49.718;11.082;2024-02-15T01:10:35;4.70;;;4.40;;
37383;SDS011;23258;49.718;11.082;2024-02-15T01:13:05;4.65;;;4.25;;
37383;SDS011;23258;49.718;11.082;2024-02-15T01:15:35;5.80;;;4.60;;
37383;SDS011;23258;49.718;11.082;2024-02-15T01:18:07;4.97;;;4.57;;
37383;SDS011;23258;49.718;11.082;2024-02-15T01:20:40;5.30;;;4.53;;
37383;SDS011;23258;49.718;11.082;2024-02-15T01:23:11;5.03;;;4.57;;
37383;SDS011;23258;49.718;11.082;2024-02-15T01:25:41;5.38;;;4.80;;
37383;SDS011;23258;49.718;11.082;2024-02-15T01:28:12;4.85;;;4.50;;
37383;SDS011;23258;49.718;11.082;2024-02-15T01:30:42;4.95;;;4.45;;
37383;SDS011;23258;49.718;11.082;2024-02-15T01:33:13;4.43;;;4.03;;
37383;SDS011;23258;49.718;11.082;2024-02-15T01:35:47;5.38;;;4.88;;
37383;SDS011;23258;49.718;11.082;2024-02-15T01:38:17;5.05;;;4.65;;
37383;SDS011;23258;49.718;11.082;2024-02-15T01:40:46;5.13;;;4.20;;
37383;SDS011;23258;49.718;11.082;2024-02-15T01:43:16;4.93;;;4.53;;
37383;SDS011;23258;49.718;11.082;2024-02-15T01:45:46;5.20;;;4.80;;
37383;SDS011;23258;49.718;11.082;2024-02-15T01:48:16;4.78;;;4.35;;
37383;SDS011;23258;49.718;11.082;2024-02-15T01:50:48;5.45;;;4.18;;
37383;SDS011;23258;49.718;11.082;2024-02-15T01:53:18;5.60;;;4.68;;
37383;SDS011;23258;49.718;11.082;2024-02-15T01:55:48;5.05;;;4.55;;
37383;SDS011;23258;49.718;11.082;2024-02-15T01:58:18;4.85;;;4.45;;
37383;SDS011;23258;49.718;11.082;2024-02-15T02:00:48;5.78;;;5.20;;
37383;SDS011;23258;49.718;11.082;2024-02-15T02:03:18;5.28;;;4.78;;
37383;SDS011;23258;49.718;11.082;2024-02-15T02:05:53;4.75;;;4.35;;
37383;SDS011;23258;49.718;11.082;2024-02-15T02:08:22;5.05;;;4.38;;
37383;SDS011;23258;49.718;11.082;2024-02-15T02:10:52;4.93;;;4.53;;
37383;SDS011;23258;49.718;11.082;2024-02-15T02:13:22;4.90;;;4.50;;
37383;SDS011;23258;49.718;11.082;2024-02-15T02:15:55;5.28;;;4.78;;
37383;SDS011;23258;49.718;11.082;2024-02-15T02:18:26;4.70;;;4.30;;
37383;SDS011;23258;49.718;11.082;2024-02-15T02:20:58;4.57;;;4.18;;
37383;SDS011;23258;49.718;11.082;2024-02-15T02:23:28;5.10;;;4.60;;
37383;SDS011;23258;49.718;11.082;2024-02-15T02:26:01;5.15;;;4.65;;
37383;SDS011;23258;49.718;11.082;2024-02-15T02:28:32;5.00;;;4.55;;
37383;SDS011;23258;49.718;11.082;2024-02-15T02:31:03;5.32;;;4.82;;
37383;SDS011;23258;49.718;11.082;2024-02-15T02:33:32;4.47;;;4.05;;
37383;SDS011;23258;49.718;11.082;2024-02-15T02:36:03;5.05;;;4.13;;
37383;SDS011;23258;49.718;11.082;2024-02-15T02:38:36;4.78;;;4.32;;
37383;SDS011;23258;49.718;11.082;2024-02-15T02:41:09;7.57;;;4.68;;
37383;SDS011;23258;49.718;11.082;2024-02-15T02:43:39;4.68;;;4.28;;
37383;SDS011;23258;49.718;11.082;2024-02-15T02:46:09;4.47;;;4.07;;
37383;SDS011;23258;49.718;11.082;2024-02-15T02:48:41;5.00;;;4.50;;
37383;SDS011;23258;49.718;11.082;2024-02-15T02:51:12;5.53;;;4.90;;
37383;SDS011;23258;49.718;11.082;2024-02-15T02:53:42;4.88;;;4.47;;
37383;SDS011;23258;49.718;11.082;2024-02-15T02:56:14;6.30;;;4.63;;
37383;SDS011;23258;49.718;11.082;2024-02-15T02:58:45;6.57;;;5.28;;
37383;SDS011;23258;49.718;11.082;2024-02-15T03:01:15;5.80;;;5.20;;
37383;SDS011;23258;49.718;11.082;2024-02-15T03:03:45;7.28;;;4.72;;
37383;SDS011;23258;49.718;11.082;2024-02-15T03:06:14;5.57;;;4.30;;
37383;SDS011;23258;49.718;11.082;2024-02-15T03:08:44;5.20;;;4.40;;
37383;SDS011;23258;49.718;11.082;2024-02-15T03:11:16;4.70;;;4.30;;
37383;SDS011;23258;49.718;11.082;2024-02-15T03:13:46;5.30;;;4.80;;
37383;SDS011;23258;49.718;11.082;2024-02-15T03:16:16;3.83;;;3.53;;
37383;SDS011;23258;49.718;11.082;2024-02-15T03:18:46;6.28;;;4.78;;
37383;SDS011;23258;49.718;11.082;2024-02-15T03:21:15;4.72;;;4.32;;
37383;SDS011;23258;49.718;11.082;2024-02-15T03:23:45;4.50;;;4.03;;
37383;SDS011;23258;49.718;11.082;2024-02-15T03:26:19;5.75;;;4.05;;
37383;SDS011;23258;49.718;11.082;2024-02-15T03:28:51;4.22;;;3.92;;
37383;SDS011;23258;49.718;11.082;2024-02-15T03:31:20;4.07;;;3.78;;
37383;SDS011;23258;49.718;11.082;2024-02-15T03:33:50;4.13;;;3.72;;
37383;SDS011;23258;49.718;11.082;2024-02-15T03:36:21;5.10;;;4.20;;
37383;SDS011;23258;49.718;11.082;2024-02-15T03:38:50;4.68;;;4.28;;
37383;SDS011;23258;49.718;11.082;2024-02-15T03:41:23;6.32;;;3.95;;
37383;SDS011;23258;49.718;11.082;2024-02-15T03:43:57;5.10;;;3.83;;
37383;SDS011;23258;49.718;11.082;2024-02-15T03:46:27;4.30;;;3.90;;
37383;SDS011;23258;49.718;11.082;2024-02-15T03:48:57;5.05;;;4.55;;
37383;SDS011;23258;49.718;11.082;2024-02-15T03:51:26;4.30;;;3.90;;
37383;SDS011;23258;49.718;11.082;2024-02-15T03:53:56;6.57;;;4.32;;
37383;SDS011;23258;49.718;11.082;2024-02-15T03:56:28;3.95;;;3.65;;
37383;SDS011;23258;49.718;11.082;2024-02-15T03:58:59;3.88;;;3.58;;
37383;SDS011;23258;49.718;11.082;2024-02-15T04:01:31;4.03;;;3.72;;
37383;SDS011;23258;49.718;11.082;2024-02-15T04:04:01;5.13;;;3.85;;
37383;SDS011;23258;49.718;11.082;2024-02-15T04:06:30;3.95;;;3.65;;
37383;SDS011;23258;49.718;11.082;2024-02-15T04:09:00;3.97;;;3.60;;
37383;SDS011;23258;49.718;11.082;2024-02-15T04:11:34;3.85;;;3.55;;
37383;SDS011;23258;49.718;11.082;2024-02-15T04:14:04;4.45;;;4.05;;
37383;SDS011;23258;49.718;11.082;2024-02-15T04:16:34;3.58;;;3.28;;
37383;SDS011;23258;49.718;11.082;2024-02-15T04:19:04;3.80;;;3.50;;
37383;SDS011;23258;49.718;11.082;2024-02-15T04:21:34;4.13;;;3.67;;
37383;SDS011;23258;49.718;11.082;2024-02-15T04:24:05;4.43;;;4.03;;
37383;SDS011;23258;49.718;11.082;2024-02-15T04:26:38;4.60;;;4.20;;
37383;SDS011;23258;49.718;11.082;2024-02-15T04:29:08;4.53;;;3.75;;
37383;SDS011;23258;49.718;11.082;2024-02-15T04:31:39;3.78;;;3.38;;
37383;SDS011;23258;49.718;11.082;2024-02-15T04:34:09;4.13;;;3.83;;
37383;SDS011;23258;49.718;11.082;2024-02-15T04:36:39;3.85;;;3.55;;
37383;SDS011;23258;49.718;11.082;2024-02-15T04:39:09;3.95;;;3.67;;
37383;SDS011;23258;49.718;11.082;2024-02-15T04:41:53;4.10;;;3.70;;
37383;SDS011;23258;49.718;11.082;2024-02-15T04:44:23;4.90;;;3.70;;
37383;SDS011;23258;49.718;11.082;2024-02-15T04:46:54;4.47;;;3.97;;
37383;SDS011;23258;49.718;11.082;2024-02-15T04:49:24;4.10;;;3.67;;
37383;SDS011;23258;49.718;11.082;2024-02-15T04:51:55;4.97;;;3.90;;
37383;SDS011;23258;49.718;11.082;2024-02-15T04:54:29;3.70;;;3.35;;
37383;SDS011;23258;49.718;11.082;2024-02-15T04:57:02;3.90;;;3.53;;
37383;SDS011;23258;49.718;11.082;2024-02-15T04:59:33;4.65;;;3.20;;
37383;SDS011;23258;49.718;11.082;2024-02-15T05:02:03;3.58;;;3.35;;
37383;SDS011;23258;49.718;11.082;2024-02-15T05:04:36;4.32;;;3.85;;
37383;SDS011;23258;49.718;11.082;2024-02-15T05:07:09;4.00;;;3.70;;
37383;SDS011;23258;49.718;11.082;2024-02-15T05:09:43;4.35;;;3.95;;
37383;SDS011;23258;49.718;11.082;2024-02-15T05:12:21;4.30;;;3.78;;
37383;SDS011;23258;49.718;11.082;2024-02-15T05:14:51;3.97;;;3.58;;
37383;SDS011;23258;49.718;11.082;2024-02-15T05:17:21;4.15;;;3.47;;
37383;SDS011;23258;49.718;11.082;2024-02-15T05:19:51;4.28;;;3.90;;
37383;SDS011;23258;49.718;11.082;2024-02-15T05:22:21;3.60;;;3.30;;
37383;SDS011;23258;49.718;11.082;2024-02-15T05:24:50;4.10;;;3.70;;
37383;SDS011;23258;49.718;11.082;2024-02-15T05:27:23;3.95;;;3.60;;
37383;SDS011;23258;49.718;11.082;2024-02-15T05:29:53;3.88;;;3.58;;
37383;SDS011;23258;49.718;11.082;2024-02-15T05:32:23;3.97;;;3.60;;
37383;SDS011;23258;49.718;11.082;2024-02-15T05:34:53;4.53;;;4.00;;
37383;SDS011;23258;49.718;11.082;2024-02-15T05:37:23;4.97;;;4.47;;
37383;SDS011;23258;49.718;11.082;2024-02-15T05:39:53;4.95;;;4.03;;
37383;SDS011;23258;49.718;11.082;2024-02-15T05:42:26;6.88;;;5.50;;
37383;SDS011;23258;49.718;11.082;2024-02-15T05:44:56;5.15;;;4.75;;
37383;SDS011;23258;49.718;11.082;2024-02-15T05:47:36;4.65;;;4.25;;
37383;SDS011;23258;49.718;11.082;2024-02-15T05:50:07;8.80;;;4.32;;
37383;SDS011;23258;49.718;11.082;2024-02-15T05:52:36;4.22;;;3.92;;
37383;SDS011;23258;49.718;11.082;2024-02-15T05:55:07;5.30;;;4.80;;
37383;SDS011;23258;49.718;11.082;2024-02-15T05:57:40;5.05;;;4.65;;
37383;SDS011;23258;49.718;11.082;2024-02-15T06:00:10;4.82;;;4.43;;
37383;SDS011;23258;49.718;11.082;2024-02-15T06:02:48;5.55;;;5.05;;
37383;SDS011;23258;49.718;11.082;2024-02-15T06:05:19;4.88;;;4.32;;
37383;SDS011;23258;49.718;11.082;2024-02-15T06:07:50;5.20;;;4.80;;
37383;SDS011;23258;49.718;11.082;2024-02-15T06:10:20;5.25;;;4.75;;
37383;SDS011;23258;49.718;11.082;2024-02-15T06:12:52;4.72;;;4.40;;
37383;SDS011;23258;49.718;11.082;2024-02-15T06:15:22;4.18;;;3.92;;
37383;SDS011;23258;49.718;11.082;2024-02-15T06:17:52;7.45;;;4.35;;
37383;SDS011;23258;49.718;11.082;2024-02-15T06:20:22;5.68;;;4.65;;
37383;SDS011;23258;49.718;11.082;2024-02-15T06:22:53;4.38;;;3.95;;
37383;SDS011;23258;49.718;11.082;2024-02-15T06:25:23;4.38;;;3.97;;
37383;SDS011;23258;49.718;11.082;2024-02-15T06:27:55;4.53;;;4.13;;
37383;SDS011;23258;49.718;11.082;2024-02-15T06:30:40;4.63;;;4.22;;
37383;SDS011;23258;49.718;11.082;2024-02-15T06:33:22;4.68;;;3.90;;
37383;SDS011;23258;49.718;11.082;2024-02-15T06:36:05;4.90;;;4.43;;
37383;SDS011;23258;49.718;11.082;2024-02-15T06:38:47;3.95;;;3.65;;
37383;SDS011;23258;49.718;11.082;2024-02-15T06:41:29;4.90;;;4.50;;
37383;SDS011;23258;49.718;11.082;2024-02-15T06:44:02;4.25;;;3.85;;
37383;SDS011;23258;49.718;11.082;2024-02-15T06:46:31;4.47;;;4.15;;
37383;SDS011;23258;49.718;11.082;2024-02-15T06:49:01;4.68;;;4.28;;
37383;SDS011;23258;49.718;11.082;2024-02-15T06:51:32;5.05;;;4.55;;
37383;SDS011;23258;49.718;11.082;2024-02-15T06:54:02;3.65;;;3.42;;
37383;SDS011;23258;49.718;11.082;2024-02-15T06:56:35;3.97;;;3.75;;
37383;SDS011;23258;49.718;11.082;2024-02-15T06:59:09;4.72;;;4.32;;
37383;SDS011;23258;49.718;11.082;2024-02-15T07:01:41;4.28;;;3.90;;
37383;SDS011;23258;49.718;11.082;2024-02-15T07:04:10;4.78;;;4.32;;
37383;SDS011;23258;49.718;11.082;2024-02-15T07:06:40;4.00;;;3.70;;
37383;SDS011;23258;49.718;11.082;2024-02-15T07:09:12;4.10;;;3.78;;
37383;SDS011;23258;49.718;11.082;2024-02-15T07:11:42;4.47;;;3.92;;
37383;SDS011;23258;49.718;11.082;2024-02-15T07:14:19;4.05;;;3.75;;
37383;SDS011;23258;49.718;11.082;2024-02-15T07:16:49;4.03;;;3.72;;
37383;SDS011;23258;49.718;11.082;2024-02-15T07:19:19;3.25;;;3.05;;
37383;SDS011;23258;49.718;11.082;2024-02-15T07:21:49;3.78;;;3.35;;
37383;SDS011;23258;49.718;11.082;2024-02-15T07:24:18;3.40;;;3.20;;
37383;SDS011;23258;49.718;11.082;2024-02-15T07:26:48;3.72;;;3.42;;
37383;SDS011;23258;49.718;11.082;2024-02-15T07:29:25;5.68;;;3.45;;
37383;SDS011;23258;49.718;11.082;2024-02-15T07:31:54;3.22;;;3.03;;
37383;SDS011;23258;49.718;11.082;2024-02-15T07:34:24;3.42;;;3.00;;
37383;SDS011;23258;49.718;11.082;2024-02-15T07:36:54;3.70;;;2.97;;
37383;SDS011;23258;49.718;11.082;2024-02-15T07:39:24;3.00;;;2.80;;
37383;SDS011;23258;49.718;11.082;2024-02-15T07:41:54;3.20;;;3.00;;
37383;SDS011;23258;49.718;11.082;2024-02-15T07:44:27;3.83;;;3.05;;
37383;SDS011;23258;49.718;11.082;2024-02-15T07:46:59;5.53;;;3.10;;
37383;SDS011;23258;49.718;11.082;2024-02-15T07:49:29;5.28;;;3.08;;
37383;SDS011;23258;49.718;11.082;2024-02-15T07:52:00;3.38;;;3.10;;
37383;SDS011;23258;49.718;11.082;2024-02-15T07:54:31;3.25;;;3.00;;
37383;SDS011;23258;49.718;11.082;2024-02-15T07:57:00;4.70;;;3.45;;
37383;SDS011;23258;49.718;11.082;2024-02-15T07:59:33;3.78;;;3.42;;
37383;SDS011;23258;49.718;11.082;2024-02-15T08:02:03;3.03;;;2.83;;
37383;SDS011;23258;49.718;11.082;2024-02-15T08:04:33;2.72;;;2.33;;
37383;SDS011;23258;49.718;11.082;2024-02-15T08:07:07;2.83;;;2.55;;
37383;SDS011;23258;49.718;11.082;2024-02-15T08:09:38;3.80;;;3.50;;
37383;SDS011;23258;49.718;11.082;2024-02-15T08:12:09;4.05;;;2.70;;
37383;SDS011;23258;49.718;11.082;2024-02-15T08:14:42;3.05;;;2.85;;
37383;SDS011;23258;49.718;11.082;2024-02-15T08:17:11;4.78;;;2.97;;
37383;SDS011;23258;49.718;11.082;2024-02-15T08:19:41;2.90;;;2.70;;
37383;SDS011;23258;49.718;11.082;2024-02-15T08:22:13;4.20;;;3.65;;
37383;SDS011;23258;49.718;11.082;2024-02-15T08:24:43;3.40;;;2.78;;
37383;SDS011;23258;49.718;11.082;2024-02-15T08:27:14;2.65;;;2.50;;
37383;SDS011;23258;49.718;11.082;2024-02-15T08:29:46;2.72;;;2.53;;
37383;SDS011;23258;49.718;11.082;2024-02-15T08:32:17;2.30;;;2.20;;
37383;SDS011;23258;49.718;11.082;2024-02-15T08:34:46;2.78;;;2.58;;
37383;SDS011;23258;49.718;11.082;2024-02-15T08:37:17;3.60;;;2.45;;
37383;SDS011;23258;49.718;11.082;2024-02-15T08:39:46;3.00;;;2.80;;
37383;SDS011;23258;49.718;11.082;2024-02-15T08:42:17;2.42;;;2.33;;
37383;SDS011;23258;49.718;11.082;2024-02-15T08:44:51;2.63;;;2.42;;
37383;SDS011;23258;49.718;11.082;2024-02-15T08:47:22;2.42;;;2.22;;
37383;SDS011;23258;49.718;11.082;2024-02-15T08:49:51;2.45;;;2.25;;
37383;SDS011;23258;49.718;11.082;2024-02-15T08:52:21;2.03;;;1.92;;
37383;SDS011;23258;49.718;11.082;2024-02-15T08:54:53;2.50;;;2.30;;
37383;SDS011;23258;49.718;11.082;2024-02-15T08:57:25;2.90;;;2.58;;
37383;SDS011;23258;49.718;11.082;2024-02-15T08:59:58;2.75;;;2.55;;
37383;SDS011;23258;49.718;11.082;2024-02-15T09:02:30;2.47;;;2.28;;
37383;SDS011;23258;49.718;11.082;2024-02-15T09:05:01;3.17;;;2.90;;
37383;SDS011;23258;49.718;11.082;2024-02-15T09:07:30;3.05;;;2.85;;
37383;SDS011;23258;49.718;11.082;2024-02-15T09:10:00;3.00;;;2.80;;
37383;SDS011;23258;49.718;11.082;2024-02-15T09:12:30;3.60;;;3.30;;
37383;SDS011;23258;49.718;11.082;2024-02-15T09:15:03;3.17;;;2.88;;
37383;SDS011;23258;49.718;11.082;2024-02-15T09:17:34;4.32;;;3.30;;
37383;SDS011;23258;49.718;11.082;2024-02-15T09:20:07;3.45;;;2.50;;
37383;SDS011;23258;49.718;11.082;2024-02-15T09:22:42;2.80;;;2.60;;
37383;SDS011;23258;49.718;11.082;2024-02-15T09:25:13;5.10;;;2.60;;
37383;SDS011;23258;49.718;11.082;2024-02-15T09:27:43;2.75;;;2.55;;
37383;SDS011;23258;49.718;11.082;2024-02-15T09:30:16;3.03;;;2.83;;
37383;SDS011;23258;49.718;11.082;2024-02-15T09:32:46;3.30;;;3.00;;
37383;SDS011;23258;49.718;11.082;2024-02-15T09:35:16;3.88;;;3.55;;
37383;SDS011;23258;49.718;11.082;2024-02-15T09:37:47;3.50;;;3.08;;
37383;SDS011;23258;49.718;11.082;2024-02-15T09:40:17;4.95;;;3.90;;
37383;SDS011;23258;49.718;11.082;2024-02-15T09:42:47;3.42;;;2.90;;
37383;SDS011;23258;49.718;11.082;2024-02-15T09:45:20;4.18;;;3.35;;
37383;SDS011;23258;49.718;11.082;2024-02-15T09:47:52;5.03;;;3.83;;
37383;SDS011;23258;49.718;11.082;2024-02-15T09:50:23;5.15;;;3.20;;
37383;SDS011;23258;49.718;11.082;2024-02-15T09:52:53;4.40;;;2.83;;
37383;SDS011;23258;49.718;11.082;2024-02-15T09:55:23;6.32;;;2.63;;
37383;SDS011;23258;49.718;11.082;2024-02-15T09:57:54;2.75;;;2.55;;
37383;SDS011;23258;49.718;11.082;2024-02-15T10:00:28;2.50;;;2.30;;
37383;SDS011;23258;49.718;11.082;2024-02-15T10:02:57;4.05;;;2.72;;
37383;SDS011;23258;49.718;11.082;2024-02-15T10:05:28;2.97;;;2.67;;
37383;SDS011;23258;49.718;11.082;2024-02-15T10:07:58;2.72;;;2.53;;
37383;SDS011;23258;49.718;11.082;2024-02-15T10:10:29;2.85;;;2.65;;
37383;SDS011;23258;49.718;11.082;2024-02-15T10:13:00;3.65;;;2.55;;
37383;SDS011;23258;49.718;11.082;2024-02-15T10:15:33;2.53;;;2.33;;
37383;SDS011;23258;49.718;11.082;2024-02-15T10:18:04;2.88;;;2.05;;
37383;SDS011;23258;49.718;11.082;2024-02-15T10:20:36;2.38;;;2.13;;
37383;SDS011;23258;49.718;11.082;2024-02-15T10:23:09;2.72;;;2.20;;
37383;SDS011;23258;49.718;11.082;2024-02-15T10:25:40;2.20;;;2.00;;
37383;SDS011;23258;49.718;11.082;2024-02-15T10:28:10;2.58;;;2.38;;
37383;SDS011;23258;49.718;11.082;2024-02-15T10:30:45;2.08;;;1.70;;
37383;SDS011;23258;49.718;11.082;2024-02-15T10:33:18;1.80;;;1.70;;
37383;SDS011;23258;49.718;11.082;2024-02-15T10:35:51;2.10;;;1.58;;
37383;SDS011;23258;49.718;11.082;2024-02-15T10:38:35;3.88;;;2.58;;
37383;SDS011;23258;49.718;11.082;2024-02-15T10:41:06;1.98;;;1.88;;
37383;SDS011;23258;49.718;11.082;2024-02-15T10:43:37;2.00;;;1.80;;
37383;SDS011;23258;49.718;11.082;2024-02-15T10:46:16;3.60;;;2.40;;
37383;SDS011;23258;49.718;11.082;2024-02-15T10:48:46;2.13;;;1.92;;
37383;SDS011;23258;49.718;11.082;2024-02-15T10:51:16;4.57;;;2.10;;
37383;SDS011;23258;49.718;11.082;2024-02-15T10:53:47;1.95;;;1.38;;
37383;SDS011;23258;49.718;11.082;2024-02-15T10:56:19;2.88;;;2.20;;
37383;SDS011;23258;49.718;11.082;2024-02-15T10:58:54;1.80;;;1.70;;
37383;SDS011;23258;49.718;11.082;2024-02-15T11:01:29;1.63;;;1.58;;
37383;SDS011;23258;49.718;11.082;2024-02-15T11:04:01;1.88;;;1.67;;
37383;SDS011;23258;49.718;11.082;2024-02-15T11:06:38;1.65;;;1.55;;
37383;SDS011;23258;49.718;11.082;2024-02-15T11:09:09;1.52;;;1.45;;
37383;SDS011;23258;49.718;11.082;2024-02-15T11:11:40;2.03;;;1.80;;
37383;SDS011;23258;49.718;11.082;2024-02-15T11:14:23;2.15;;;1.92;;
37383;SDS011;23258;49.718;11.082;2024-02-15T11:16:55;1.85;;;1.75;;
37383;SDS011;23258;49.718;11.082;2024-02-15T11:19:40;1.58;;;1.48;;
37383;SDS011;23258;49.718;11.082;2024-02-15T11:22:08;1.98;;;1.73;;
37383;SDS011;23258;49.718;11.082;2024-02-15T11:24:45;1.88;;;1.50;;
37383;SDS011;23258;49.718;11.082;2024-02-15T11:27:24;1.35;;;1.30;;
37383;SDS011;23258;49.718;11.082;2024-02-15T11:29:55;2.97;;;1.60;;
37383;SDS011;23258;49.718;11.082;2024-02-15T11:32:39;1.10;;;1.10;;
37383;SDS011;23258;49.718;11.082;2024-02-15T11:35:07;2.30;;;1.63;;
37383;SDS011;23258;49.718;11.082;2024-02-15T11:37:51;1.85;;;1.70;;
37383;SDS011;23258;49.718;11.082;2024-02-15T11:40:23;1.70;;;1.60;;
37383;SDS011;23258;49.718;11.082;2024-02-15T11:42:54;2.92;;;1.63;;
37383;SDS011;23258;49.718;11.082;2024-02-15T11:45:27;1.65;;;1.55;;
37383;SDS011;23258;49.718;11.082;2024-02-15T11:48:04;1.42;;;1.30;;
37383;SDS011;23258;49.718;11.082;2024-02-15T11:50:39;1.50;;;1.40;;
37383;SDS011;23258;49.718;11.082;2024-02-15T11:53:09;1.50;;;1.40;;
37383;SDS011;23258;49.718;11.082;2024-02-15T11:55:40;2.70;;;1.70;;
37383;SDS011;23258;49.718;11.082;2024-02-15T11:58:12;2.17;;;1.52;;
37383;SDS011;23258;49.718;11.082;2024-02-15T12:00:58;1.65;;;1.55;;
37383;SDS011;23258;49.718;11.082;2024-02-15T12:03:43;2.08;;;1.95;;
37383;SDS011;23258;49.718;11.082;2024-02-15T12:06:33;2.15;;;1.50;;
37383;SDS011;23258;49.718;11.082;2024-02-15T12:09:17;3.40;;;1.30;;
37383;SDS011;23258;49.718;11.082;2024-02-15T12:11:59;2.95;;;1.42;;
37383;SDS011;23258;49.718;11.082;2024-02-15T12:14:41;2.78;;;1.65;;
37383;SDS011;23258;49.718;11.082;2024-02-15T12:17:24;2.13;;;1.92;;
37383;SDS011;23258;49.718;11.082;2024-02-15T12:20:09;1.10;;;1.10;;
37383;SDS011;23258;49.718;11.082;2024-02-15T12:22:40;3.80;;;1.80;;
37383;SDS011;23258;49.718;11.082;2024-02-15T12:25:13;2.03;;;1.63;;
37383;SDS011;23258;49.718;11.082;2024-02-15T12:27:44;1.20;;;1.20;;
37383;SDS011;23258;49.718;11.082;2024-02-15T12:30:14;1.30;;;1.20;;
37383;SDS011;23258;49.718;11.082;2024-02-15T12:32:47;3.40;;;1.20;;
37383;SDS011;23258;49.718;11.082;2024-02-15T12:35:20;3.78;;;1.27;;
37383;SDS011;23258;49.718;11.082;2024-02-15T12:38:00;4.30;;;2.22;;
37383;SDS011;23258;49.718;11.082;2024-02-15T12:40:33;1.40;;;1.30;;
37383;SDS011;23258;49.718;11.082;2024-02-15T12:43:04;1.90;;;1.55;;
37383;SDS011;23258;49.718;11.082;2024-02-15T12:45:36;1.98;;;1.42;;
37383;SDS011;23258;49.718;11.082;2024-02-15T12:48:08;1.85;;;1.25;;
37383;SDS011;23258;49.718;11.082;2024-02-15T12:50:41;1.77;;;1.33;;
37383;SDS011;23258;49.718;11.082;2024-02-15T12:53:11;3.58;;;1.65;;
37383;SDS011;23258;49.718;11.082;2024-02-15T12:55:41;1.58;;;1.20;;
37383;SDS011;23258;49.718;11.082;2024-02-15T12:58:12;1.58;;;1.33;;
37383;SDS011;23258;49.718;11.082;2024-02-15T13:00:43;3.40;;;1.50;;
37383;SDS011;23258;49.718;11.082;2024-02-15T13:03:13;0.82;;;0.82;;
37383;SDS011;23258;49.718;11.082;2024-02-15T13:05:47;1.08;;;0.85;;
37383;SDS011;23258;49.718;11.082;2024-02-15T13:08:17;2.45;;;1.02;;
37383;SDS011;23258;49.718;11.082;2024-02-15T13:10:47;1.65;;;0.82;;
37383;SDS011;23258;49.718;11.082;2024-02-15T13:13:18;1.35;;;1.25;;
37383;SDS011;23258;49.718;11.082;2024-02-15T13:15:49;1.27;;;1.27;;
37383;SDS011;23258;49.718;11.082;2024-02-15T13:18:20;1.45;;;1.10;;
37383;SDS011;23258;49.718;11.082;2024-02-15T13:20:53;2.25;;;1.17;;
37383;SDS011;23258;49.718;11.082;2024-02-15T13:23:25;1.23;;;1.13;;
37383;SDS011;23258;49.718;11.082;2024-02-15T13:25:55;1.35;;;1.25;;
37383;SDS011;23258;49.718;11.082;2024-02-15T13:28:29;2.45;;;0.95;;
37383;SDS011;23258;49.718;11.082;2024-02-15T13:30:58;1.65;;;1.38;;
37383;SDS011;23258;49.718;11.082;2024-02-15T13:33:29;2.97;;;1.38;;
37383;SDS011;23258;49.718;11.082;2024-02-15T13:36:03;1.10;;;1.00;;
37383;SDS011;23258;49.718;11.082;2024-02-15T13:38:33;1.20;;;1.10;;
37383;SDS011;23258;49.718;11.082;2024-02-15T13:41:03;1.25;;;1.15;;
37383;SDS011;23258;49.718;11.082;2024-02-15T13:43:33;1.20;;;1.10;;
37383;SDS011;23258;49.718;11.082;2024-02-15T13:46:03;2.15;;;1.20;;
37383;SDS011;23258;49.718;11.082;2024-02-15T13:48:33;1.20;;;1.10;;
37383;SDS011;23258;49.718;11.082;2024-02-15T13:51:06;1.00;;;1.00;;
37383;SDS011;23258;49.718;11.082;2024-02-15T13:53:36;1.30;;;1.20;;
37383;SDS011;23258;49.718;11.082;2024-02-15T13:56:06;1.38;;;1.27;;
37383;SDS011;23258;49.718;11.082;2024-02-15T13:58:36;2.03;;;1.42;;
37383;SDS011;23258;49.718;11.082;2024-02-15T14:01:06;1.25;;;1.15;;
37383;SDS011;23258;49.718;11.082;2024-02-15T14:03:41;1.48;;;1.38;;
37383;SDS011;23258;49.718;11.082;2024-02-15T14:06:15;0.70;;;0.70;;
37383;SDS011;23258;49.718;11.082;2024-02-15T14:08:46;1.45;;;1.15;;
37383;SDS011;23258;49.718;11.082;2024-02-15T14:11:17;1.00;;;1.00;;
37383;SDS011;23258;49.718;11.082;2024-02-15T14:13:48;0.80;;;0.80;;
37383;SDS011;23258;49.718;11.082;2024-02-15T14:16:25;2.10;;;1.15;;
37383;SDS011;23258;49.718;11.082;2024-02-15T14:18:59;1.02;;;0.90;;
37383;SDS011;23258;49.718;11.082;2024-02-15T14:21:34;1.70;;;0.90;;
37383;SDS011;23258;49.718;11.082;2024-02-15T14:24:07;0.93;;;0.93;;
37383;SDS011;23258;49.718;11.082;2024-02-15T14:26:38;1.38;;;1.05;;
37383;SDS011;23258;49.718;11.082;2024-02-15T14:29:07;0.95;;;0.95;;
37383;SDS011;23258;49.718;11.082;2024-02-15T14:31:39;1.23;;;1.13;;
37383;SDS011;23258;49.718;11.082;2024-02-15T14:34:22;1.10;;;1.10;;
37383;SDS011;23258;49.718;11.082;2024-02-15T14:36:55;0.93;;;0.82;;
37383;SDS011;23258;49.718;11.082;2024-02-15T14:39:28;1.10;;;1.00;;
37383;SDS011;23258;49.718;11.082;2024-02-15T14:41:57;1.13;;;1.10;;
37383;SDS011;23258;49.718;11.082;2024-02-15T14:44:27;0.82;;;0.63;;
37383;SDS011;23258;49.718;11.082;2024-02-15T14:46:57;1.48;;;0.77;;
37383;SDS011;23258;49.718;11.082;2024-02-15T14:49:27;1.88;;;1.23;;
37383;SDS011;23258;49.718;11.082;2024-02-15T14:51:59;1.02;;;1.00;;
37383;SDS011;23258;49.718;11.082;2024-02-15T14:54:30;1.00;;;0.75;;
37383;SDS011;23258;49.718;11.082;2024-02-15T14:57:00;1.20;;;1.10;;
37383;SDS011;23258;49.718;11.082;2024-02-15T14:59:30;1.40;;;1.25;;